Latest Coastal Weather Observations for Flinders Reef

IDQ60701

Issued at 8:42 am EST Thursday 30 March 2017 (issued every 10 minutes, with the page automatically refreshed every 10 minutes)

About coastal observations | Map of coastal stations | Coastal observations for QLD | Marine services | Other Formats
Station Details ID: 200783 Name: FLINDERS REEF Lat: -17.72 Lon: 148.45 Height: 2.6 m
Data from the previous 72 hours. | See also: Recent months at Flinders Reef
Date/Time
EST
Temp
°C
Wind Pressure Rain since
9am
mm
Weather Cloud Vis
km
Sea
Height
m
Swell
Dir  Spd
kts
Gust
kts
hPa Trend Height
m
Period
s
Dir
30/08:30am 29.5 N 22 25 1010.8 - - - - - - - - -
30/08:24am 29.5 N 23 - 1010.6 - - - - - - - - -
30/08:00am 29.4 N 22 26 1010.3 - - - - - - - - -
30/07:30am 29.2 N 23 26 1009.9 - - - - - - - - -
30/07:24am 29.3 N 23 - 1009.7 - - - - - - - - -
30/07:00am 29.3 N 23 28 1009.5 - - - - - - - - -
30/06:30am 29.2 N 24 28 1009.1 - - - - - - - - -
30/06:24am 29.2 N 23 - 1008.9 - - - - - - - - -
30/06:00am 29.2 N 22 26 1008.9 - - - - - - - - -
30/05:30am 29.3 N 24 29 1008.6 - - - - - - - - -
30/05:24am 29.2 N 25 - 1008.5 - - - - - - - - -
30/05:00am 29.1 N 22 26 1008.2 - - - - - - - - -
30/04:30am 29.1 N 23 28 1008.0 - - - - - - - - -
30/04:24am 29.2 N 23 - 1007.8 - - - - - - - - -
30/04:00am 29.2 N 24 28 1007.7 - - - - - - - - -
30/03:30am 29.1 N 24 29 1007.5 - - - - - - - - -
30/03:24am 29.1 N 24 - 1007.3 - - - - - - - - -
30/03:00am 29.1 N 24 28 1007.3 - - - - - - - - -
30/02:30am 29.1 N 25 29 1007.5 - - - - - - - - -
30/02:24am 29.1 N 25 - 1007.3 - - - - - - - - -
30/02:00am 29.0 N 25 29 1007.4 - - - - - - - - -
30/01:30am 29.2 N 23 27 1007.8 - - - - - - - - -
30/01:24am 29.3 N 23 - 1007.8 - - - - - - - - -
30/01:00am 29.3 N 24 28 1008.1 - - - - - - - - -
30/12:30am 29.3 N 23 28 1008.3 - - - - - - - - -
30/12:24am 29.4 N 23 - 1008.3 - - - - - - - - -
30/12:00am 29.2 N 24 28 1008.3 - - - - - - - - -
 
Date/Time
EST
Temp
°C
Wind Pressure Rain since
9am
mm
Weather Cloud Vis
km
Sea
Height
m
Swell
Dir  Spd
kts
Gust
kts
hPa Trend Height
m
Period
s
Dir
29/11:30pm 29.4 N 24 28 1008.5 - - - - - - - - -
29/11:24pm 29.4 N 24 - 1008.3 - - - - - - - - -
29/11:00pm 29.4 N 23 28 1008.5 - - - - - - - - -
29/10:30pm 29.3 N 25 30 1008.7 - - - - - - - - -
29/10:24pm 29.3 N 25 - 1008.6 - - - - - - - - -
29/10:00pm 29.3 N 27 31 1008.3 - - - - - - - - -
29/09:30pm 29.3 N 24 28 1008.3 - - - - - - - - -
29/09:24pm 29.3 N 24 - 1008.2 - - - - - - - - -
29/09:00pm 29.3 N 26 31 1008.2 - - - - - - - - -
29/08:30pm 29.3 N 26 30 1007.8 - - - - - - - - -
29/08:24pm 29.4 N 26 - 1007.6 - - - - - - - - -
29/08:00pm 29.4 N 25 29 1007.0 - - - - - - - - -
29/07:30pm 29.3 N 25 31 1006.7 - - - - - - - - -
29/07:24pm 29.3 N 25 - 1006.4 - - - - - - - - -
29/07:00pm 29.3 N 24 28 1006.2 - - - - - - - - -
29/06:30pm 29.4 N 25 29 1006.0 - - - - - - - - -
29/06:24pm 29.3 N 24 - 1006.0 - - - - - - - - -
29/06:00pm 29.4 N 21 25 1006.0 - - - - - - - - -
29/05:30pm 29.4 N 22 27 1005.8 - - - - - - - - -
29/05:24pm 29.4 N 23 - 1005.6 - - - - - - - - -
29/05:00pm 29.3 N 21 27 1005.2 - - - - - - - - -
29/04:30pm 29.7 N 25 29 1004.3 - - - - - - - - -
29/04:24pm 29.6 N 25 - 1004.1 - - - - - - - - -
29/04:00pm 29.5 N 24 30 1004.2 - - - - - - - - -
29/03:30pm 29.6 N 23 27 1004.1 - - - - - - - - -
29/03:24pm 29.5 N 23 - 1004.1 - - - - - - - - -
29/03:00pm 29.7 N 24 29 1004.4 - - - - - - - - -
29/02:30pm 29.5 N 24 28 1004.6 - - - - - - - - -
29/02:24pm 29.6 N 24 - 1004.5 - - - - - - - - -
29/02:00pm 29.8 N 25 30 1004.6 - - - - - - - - -
29/01:30pm 29.6 N 27 32 1004.9 - - - - - - - - -
29/01:24pm 29.6 N 27 - 1004.9 - - - - - - - - -
29/01:00pm 29.7 N 25 29 1005.3 - - - - - - - - -
29/12:30pm 29.6 N 25 30 1005.6 - - - - - - - - -
29/12:24pm 29.7 N 24 - 1005.6 - - - - - - - - -
29/12:00pm 29.7 N 24 29 1006.0 - - - - - - - - -
29/11:30am 29.8 N 26 30 1006.1 - - - - - - - - -
29/11:24am 29.7 N 26 - 1006.0 - - - - - - - - -
29/11:00am 29.7 N 27 33 1006.3 - - - - - - - - -
29/10:30am 29.6 N 26 31 1006.5 - - - - - - - - -
29/10:24am 29.7 N 26 - 1006.5 - - - - - - - - -
29/10:00am 29.6 N 27 32 1006.6 - - - - - - - - -
29/09:30am 29.7 N 27 33 1006.5 - - - - - - - - -
29/09:24am 29.6 N 27 - 1006.3 - - - - - - - - -
29/09:00am 29.7 N 27 33 1006.1 - - - - - - - - -
29/08:30am 29.7 N 28 33 1005.7 - - - - - - - - -
29/08:24am 29.6 N 29 - 1005.6 - - - - - - - - -
29/08:00am 29.5 N 30 35 1005.6 - - - - - - - - -
29/07:30am 29.5 N 30 36 1005.0 - - - - - - - - -
29/07:24am 29.4 N 30 - 1004.9 - - - - - - - - -
29/07:00am 29.4 N 32 39 1004.6 - - - - - - - - -
29/06:57am 29.3 N 29 39 1004.5 - - - - - - - - -
29/06:30am 29.4 N 29 35 1004.1 - - - - - - - - -
29/06:24am 29.3 N 29 - 1003.9 - - - - - - - - -
29/06:00am 29.3 N 29 36 1003.7 - - - - - - - - -
29/05:30am 29.4 N 33 38 1003.1 - - - - - - - - -
29/05:24am 29.5 N 32 - 1002.9 - - - - - - - - -
29/05:00am 29.3 N 30 37 1002.8 - - - - - - - - -
29/04:30am 29.3 N 31 40 1002.8 - - - - - - - - -
29/04:24am 29.3 N 31 - 1002.7 - - - - - - - - -
29/04:00am 29.3 N 31 36 1002.2 - - - - - - - - -
29/03:30am 29.4 N 32 40 1002.3 - - - - - - - - -
29/03:24am 29.2 N 31 - 1002.4 - - - - - - - - -
29/03:00am 29.4 N 31 38 1002.2 - - - - - - - - -
29/02:30am 29.3 N 30 37 1002.4 - - - - - - - - -
29/02:28am 29.4 N 30 40 1002.3 - - - - - - - - -
29/02:24am 29.4 N 32 - 1002.2 - - - - - - - - -
29/02:00am 29.4 N 32 38 1002.6 - - - - - - - - -
29/01:30am 29.4 N 33 42 1002.2 - - - - - - - - -
29/01:24am 29.4 N 34 - 1001.9 - - - - - - - - -
29/01:00am 29.4 N 34 40 1002.4 - - - - - - - - -
29/12:30am 29.5 N 35 41 1003.0 - - - - - - - - -
29/12:24am 29.4 N 34 - 1002.7 - - - - - - - - -
29/12:00am 29.3 N 33 41 1002.1 - - - - - - - - -
 
Date/Time
EST
Temp
°C
Wind Pressure Rain since
9am
mm
Weather Cloud Vis
km
Sea
Height
m
Swell
Dir  Spd
kts
Gust
kts
hPa Trend Height
m
Period
s
Dir
28/11:30pm 29.4 N 31 38 1002.6 - - - - - - - - -
28/11:24pm 29.3 N 30 - 1002.3 - - - - - - - - -
28/11:00pm 29.2 N 28 34 1002.6 - - - - - - - - -
28/10:30pm 29.2 NNW 26 32 1003.7 - - - - - - - - -
28/10:24pm 29.2 NNW 23 - 1003.6 - - - - - - - - -
28/10:16pm 29.2 N 21 30 1003.8 - - - - - - - - -
28/10:00pm 29.3 NNW 32 38 1004.3 - - - - - - - - -
28/09:30pm 29.5 NNW 31 39 1003.5 - - - - - - - - -
28/09:24pm 29.6 N 32 - 1003.2 - - - - - - - - -
28/09:00pm 29.5 N 32 38 1002.0 - - - - - - - - -
28/08:30pm 29.5 N 32 37 1001.6 - - - - - - - - -
28/08:24pm 29.5 N 31 - 1001.3 - - - - - - - - -
28/08:00pm 29.5 N 32 37 1001.1 - - - - - - - - -
28/07:30pm 29.5 N 30 36 1001.6 - - - - - - - - -
28/07:24pm 29.5 N 29 - 1001.7 - - - - - - - - -
28/07:00pm 29.5 NNW 29 35 1001.7 - - - - - - - - -
28/06:30pm 29.4 NNW 28 34 1001.4 - - - - - - - - -
28/06:24pm 29.5 NNW 29 - 1001.2 - - - - - - - - -
28/06:00pm 29.4 N 28 36 1001.1 - - - - - - - - -
28/05:30pm 29.4 N 27 34 1000.9 - - - - - - - - -
28/05:24pm 29.6 N 27 - 1000.8 - - - - - - - - -
28/05:00pm 29.8 N 25 31 1000.7 - - - - - - - - -
28/04:30pm 29.6 NNW 26 32 1000.4 - - - - - - - - -
28/04:24pm 29.6 NNW 26 - 1000.2 - - - - - - - - -
28/04:00pm 29.9 NNW 26 29 1000.1 - - - - - - - - -
28/03:30pm 29.9 NNW 26 31 1000.1 - - - - - - - - -
28/03:24pm 30.0 NNW 26 - 999.9 - - - - - - - - -
28/03:00pm 30.1 NNW 25 31 999.9 - - - - - - - - -
28/02:30pm 29.9 NNW 25 30 1000.0 - - - - - - - - -
28/02:24pm 29.9 NNW 25 - 999.8 - - - - - - - - -
28/02:00pm 29.9 NNW 25 29 999.9 - - - - - - - - -
28/01:30pm 29.7 NNW 28 34 1000.2 - - - - - - - - -
28/01:24pm 29.8 NNW 27 - 1000.2 - - - - - - - - -
28/01:00pm 29.9 NNW 28 33 1000.3 - - - - - - - - -
28/12:30pm 29.9 NNW 29 34 1000.6 - - - - - - - - -
28/12:24pm 29.9 NNW 28 - 1000.5 - - - - - - - - -
28/12:00pm 30.0 NNW 28 36 1000.9 - - - - - - - - -
28/11:30am 30.2 NNW 29 35 1001.1 - - - - - - - - -
28/11:24am 30.1 NNW 29 - 1001.1 - - - - - - - - -
28/11:00am 30.1 NNW 28 32 1001.4 - - - - - - - - -
28/10:30am 30.2 NNW 25 31 1001.7 - - - - - - - - -
28/10:24am 30.1 NNW 26 - 1001.7 - - - - - - - - -
28/10:00am 30.5 NW 28 35 1001.8 - - - - - - - - -
28/09:30am 30.2 NW 26 34 1001.8 - - - - - - - - -
28/09:24am 30.2 NW 26 - 1001.7 - - - - - - - - -
28/09:00am 30.1 NW 27 32 1001.8 - - - - - - - - -
28/08:30am 30.0 NW 27 33 1001.6 - - - - - - - - -
28/08:24am 30.0 NW 27 - 1001.5 - - - - - - - - -
28/08:00am 29.6 NW 26 31 1001.4 - - - - - - - - -
28/07:30am 30.1 WNW 28 35 1000.7 - - - - - - - - -
28/07:24am 29.9 NW 27 - 1000.6 - - - - - - - - -
28/07:00am 29.9 NW 26 31 1000.3 - - - - - - - - -
28/06:30am 29.9 WNW 31 39 999.9 - - - - - - - - -
28/06:24am 29.7 NW 30 - 999.8 - - - - - - - - -
28/06:00am 30.1 NW 27 32 999.7 - - - - - - - - -
28/05:30am 29.9 NW 25 29 999.2 - - - - - - - - -
28/05:24am 29.9 WNW 26 - 999.0 - - - - - - - - -
28/05:00am 29.9 NW 29 34 999.0 - - - - - - - - -
28/04:30am 29.8 NW 30 37 998.9 - - - - - - - - -
28/04:24am 29.5 NW 30 - 998.8 - - - - - - - - -
28/04:00am 29.8 NW 28 35 999.0 - - - - - - - - -
28/03:30am 29.8 NW 28 34 999.3 - - - - - - - - -
28/03:24am 29.9 NW 27 - 999.2 - - - - - - - - -
28/03:00am 29.3 WNW 29 33 999.4 - - - - - - - - -
28/02:30am 29.5 WNW 27 32 999.7 - - - - - - - - -
28/02:24am 29.4 NW 28 - 999.6 - - - - - - - - -
28/02:00am 29.4 WNW 26 31 1000.1 - - - - - - - - -
28/01:30am 29.7 WNW 26 30 1000.4 - - - - - - - - -
28/01:24am 29.9 WNW 25 - 1000.4 - - - - - - - - -
28/01:00am 30.3 WNW 29 35 1000.5 - - - - - - - - -
28/12:35am 30.1 W 30 40 1000.8 - - - - - - - - -
28/12:30am 30.1 W 29 36 1001.0 - - - - - - - - -
28/12:24am 30.0 W 31 - 1001.0 - - - - - - - - -
28/12:00am 30.0 W 31 37 1001.4 - - - - - - - - -
 
Date/Time
EST
Temp
°C
Wind Pressure Rain since
9am
mm
Weather Cloud Vis
km
Sea
Height
m
Swell
Dir  Spd
kts
Gust
kts
hPa Trend Height
m
Period
s
Dir
27/11:30pm 30.2 W 31 37 1001.7 - - - - - - - - -
27/11:24pm 30.2 W 31 - 1001.8 - - - - - - - - -
27/11:00pm 30.2 W 28 35 1002.0 - - - - - - - - -
27/10:30pm 30.1 W 30 38 1002.0 - - - - - - - - -
27/10:24pm 30.3 W 32 - 1001.9 - - - - - - - - -
27/10:00pm 30.2 W 31 38 1002.1 - - - - - - - - -
27/09:46pm 30.2 W 31 41 1002.0 - - - - - - - - -
27/09:30pm 30.3 W 31 40 1002.0 - - - - - - - - -
27/09:24pm 30.3 W 30 - 1002.0 - - - - - - - - -
27/09:00pm 30.4 W 27 34 1002.0 - - - - - - - - -
27/08:30pm 30.2 W 28 34 1001.6 - - - - - - - - -
27/08:24pm 30.3 W 29 - 1001.4 - - - - - - - - -
27/08:00pm 30.3 W 28 33 1001.5 - - - - - - - - -
27/07:30pm 30.3 W 28 33 1001.3 - - - - - - - - -
27/07:24pm 30.1 W 27 - 1001.2 - - - - - - - - -
27/07:00pm 30.0 W 27 31 1001.1 - - - - - - - - -
27/06:30pm 29.8 W 27 33 1001.2 - - - - - - - - -
27/06:24pm 29.7 W 27 - 1001.1 - - - - - - - - -
27/06:00pm 29.7 W 27 33 1001.1 - - - - - - - - -
27/05:30pm 29.6 W 28 36 1001.0 - - - - - - - - -
27/05:24pm 29.4 W 28 - 1000.9 - - - - - - - - -
27/05:00pm 29.1 W 28 33 1000.7 - - - - - - - - -
27/04:30pm 29.5 W 28 34 1000.3 - - - - - - - - -
27/04:24pm 29.3 W 28 - 999.9 - - - - - - - - -
27/04:00pm 29.2 W 27 33 1000.2 - - - - - - - - -
27/03:30pm 29.3 W 29 33 1000.6 - - - - - - - - -
27/03:24pm 29.1 W 27 - 1000.5 - - - - - - - - -
27/03:00pm 29.0 W 29 34 1000.7 - - - - - - - - -
27/02:30pm 28.5 W 28 35 1001.1 - - - - - - - - -
27/02:24pm 28.4 W 31 - 1001.1 - - - - - - - - -
27/02:00pm 28.5 W 30 35 1001.3 - - - - - - - - -
27/01:30pm 28.1 W 29 35 1001.6 - - - - - - - - -
27/01:24pm 28.0 W 27 - 1001.6 - - - - - - - - -
27/01:00pm 28.2 W 29 36 1002.1 - - - - - - - - -
27/12:30pm 28.5 W 28 35 1002.8 - - - - - - - - -
27/12:24pm 28.7 W 29 - 1002.7 - - - - - - - - -
27/12:00pm 29.0 W 29 34 1002.8 - - - - - - - - -
27/11:30am 28.9 W 31 36 1003.3 - - - - - - - - -
27/11:24am 28.8 W 30 - 1003.3 - - - - - - - - -
27/11:00am 28.5 W 30 36 1003.7 - - - - - - - - -
27/10:30am 28.2 W 28 35 1004.0 - - - - - - - - -
27/10:24am 28.1 W 28 - 1004.0 - - - - - - - - -
27/10:00am 28.0 W 27 33 1004.3 - - - - - - - - -
27/09:30am 27.9 WSW 29 35 1004.4 - - - - - - - - -
27/09:24am 27.9 WSW 28 - 1004.5 - - - - - - - - -
27/09:00am 27.9 WSW 28 36 1004.5 - - - - - - - - -

Other Formats:

Comma delimited format used in spreadsheet applications
http://www.bom.gov.au/fwo/IDQ60701/IDQ60701.94290.axf

JavaScript Object Notation format (JSON) in row-major order
http://www.bom.gov.au/fwo/IDQ60701/IDQ60701.94290.json